TSA weather

Taipei Songshan Airport
Taipei City, Taipei (municipality), Taiwan

Public forecast

Using degrees Celsius for public forecast. Weather courtesy of forecast.io.

METAR (pilot weather report)

Retrieved 2019/04/20 03:30 UTC (21 minutes ago):

RCSS 200330Z 30006KT 260V350 9999 FEW008 BKN025 BKN080 28/22 Q1009 NOSIG RMK A2981

TAF (pilot weather forecast)

Forecast is more than 12 hours old.

Retrieved 2019/04/19 00:00 UTC (1 day ago):

TAF RCSS 192300Z 2000/2024 28005KT 8000 FEW010 SCT018 BKN032 TEMPO 2005/2011 10008KT 3200 SHRA SCT008 FEW015CB BKN018 BKN035 TEMPO 2014/2020 11005KT 5000 RA FEW010 BKN018 BKN035